createdAt,value
2016-05-05T00:00:13.429Z,52.37
2016-05-05T00:01:27.448Z,52.47
2016-05-05T00:02:13.139Z,52.56
2016-05-05T00:03:27.297Z,52.47
2016-05-05T00:04:13.222Z,52.37
2016-05-05T00:05:13.271Z,52.28
2016-05-05T00:06:13.117Z,52.66
2016-05-05T00:07:13.105Z,52.56
2016-05-05T00:08:13.200Z,52.56
2016-05-05T00:09:12.939Z,52.37
2016-05-05T00:10:13.144Z,52.56
2016-05-05T00:11:13.334Z,53.13
2016-05-05T00:12:27.258Z,52.4
2016-05-05T00:13:13.074Z,52.59
2016-05-05T00:15:13.219Z,52.68
2016-05-05T00:16:12.910Z,53.04
2016-05-05T00:17:14.068Z,52.94
2016-05-05T00:18:13.072Z,52.84
2016-05-05T00:19:13.168Z,52.84
2016-05-05T00:20:12.890Z,53.04
2016-05-05T00:21:13.049Z,53.06
2016-05-05T00:22:13.035Z,52.87
2016-05-05T00:23:13.851Z,53.06
2016-05-05T00:24:13.573Z,53.06
2016-05-05T00:25:14.168Z,52.78
2016-05-05T00:26:12.859Z,53.06
2016-05-05T00:27:13.018Z,52.97
2016-05-05T00:28:13.317Z,53.06
2016-05-05T00:29:13.007Z,52.87
2016-05-05T00:30:12.853Z,53.54
2016-05-05T00:31:13.138Z,53.83
2016-05-05T00:32:13.000Z,53.83
2016-05-05T00:33:12.986Z,53.92
2016-05-05T00:34:12.990Z,53.83
2016-05-05T00:35:12.992Z,53.73
2016-05-05T00:36:12.980Z,53.54
2016-05-05T00:37:12.983Z,53.54
2016-05-05T00:38:12.985Z,53.64
2016-05-05T00:39:12.972Z,53.54
2016-05-05T00:40:12.974Z,53.64
2016-05-05T00:41:12.961Z,53.73
2016-05-05T00:42:12.949Z,53.44
2016-05-05T00:43:12.952Z,53.64
2016-05-05T00:44:12.782Z,53.35
2016-05-05T00:45:12.941Z,53.44
2016-05-05T00:46:12.943Z,53.54
2016-05-05T00:47:12.931Z,53.16
2016-05-05T00:48:12.933Z,53.35
2016-05-05T00:49:12.921Z,53.35
2016-05-05T00:50:12.923Z,53.54
2016-05-05T00:51:12.927Z,53.35
2016-05-05T00:52:12.913Z,53.44
2016-05-05T00:53:12.916Z,53.73
2016-05-05T00:54:12.918Z,53.8
2016-05-05T00:55:12.906Z,53.44
2016-05-05T00:56:12.737Z,53.61
2016-05-05T00:57:12.896Z,53.54
2016-05-05T00:58:12.899Z,53.42
2016-05-05T00:59:12.870Z,53.44
2016-05-05T01:00:12.887Z,53.61
2016-05-05T01:01:12.875Z,53.42
2016-05-05T01:02:12.878Z,53.54
2016-05-05T01:03:12.864Z,53.16
2016-05-05T01:04:12.867Z,53.16
2016-05-05T01:05:12.854Z,53.54
2016-05-05T01:06:12.857Z,53.42
2016-05-05T01:07:12.844Z,53.54
2016-05-05T01:08:12.847Z,53.35
2016-05-05T01:09:12.693Z,53.32
2016-05-05T01:10:12.852Z,53.54
2016-05-05T01:11:12.824Z,53.25
2016-05-05T01:12:12.826Z,53.64
2016-05-05T01:13:12.829Z,53.8
2016-05-05T01:14:12.816Z,53.7
2016-05-05T01:15:12.819Z,53.89
2016-05-05T01:16:12.822Z,54.18
2016-05-05T01:17:12.808Z,53.7
2016-05-05T01:18:12.796Z,53.99
2016-05-05T01:19:12.798Z,53.8
2016-05-05T01:21:12.788Z,54.21
2016-05-05T01:22:12.791Z,53.8
2016-05-05T01:23:12.777Z,53.8
2016-05-05T01:24:13.093Z,53.7
2016-05-05T01:25:12.783Z,53.83
2016-05-05T01:26:12.771Z,53.92
2016-05-05T01:27:12.757Z,54.02
2016-05-05T01:28:13.604Z,53.92
2016-05-05T01:29:13.653Z,53.83
2016-05-05T01:30:13.406Z,53.64
2016-05-05T01:31:12.753Z,53.73
2016-05-05T01:32:12.771Z,54.18
2016-05-05T01:33:14.117Z,54.27
2016-05-05T01:34:14.089Z,54.39
2016-05-05T01:35:13.217Z,54.37
2016-05-05T01:36:12.720Z,54.18
2016-05-05T01:37:12.722Z,54.37
2016-05-05T01:38:12.725Z,54.75
2016-05-05T01:39:13.883Z,54.94
2016-05-05T01:40:12.558Z,55.04
2016-05-05T01:41:12.701Z,55.04
2016-05-05T01:42:12.736Z,54.85
2016-05-05T01:43:13.472Z,54.94
2016-05-05T01:44:12.694Z,54.75
2016-05-05T01:45:12.697Z,55.22
2016-05-05T01:46:12.683Z,55.04
2016-05-05T01:47:12.795Z,55.32
2016-05-05T01:48:13.173Z,55.22
2016-05-05T01:49:12.676Z,55.13
2016-05-05T01:50:12.507Z,55.22
2016-05-05T01:51:12.650Z,55.32
2016-05-05T01:52:12.673Z,55.32
2016-05-05T01:53:12.718Z,55.42
2016-05-05T01:54:12.749Z,55.22
2016-05-05T01:55:12.794Z,55.22
2016-05-05T01:56:12.667Z,54.85
2016-05-05T01:57:12.855Z,54.85
2016-05-05T01:58:12.889Z,55.04
2016-05-05T01:59:12.875Z,55.32
2016-05-05T02:00:12.878Z,55.22
2016-05-05T02:01:12.912Z,55.42
2016-05-05T02:02:12.910Z,55.51
2016-05-05T02:03:12.903Z,55.42
2016-05-05T02:04:12.910Z,55.51
2016-05-05T02:05:12.905Z,55.8
2016-05-05T02:06:12.913Z,55.8
2016-05-05T02:07:12.919Z,55.8
2016-05-05T02:08:12.908Z,56.27
2016-05-05T02:09:12.757Z,56.46
2016-05-05T02:10:12.901Z,56.09
2016-05-05T02:11:12.905Z,55.8
2016-05-05T02:12:12.895Z,56.46
2016-05-05T02:13:12.899Z,55.99
2016-05-05T02:14:12.885Z,55.9
2016-05-05T02:15:12.734Z,56.65
2016-05-05T02:16:12.876Z,56.37
2016-05-05T02:17:12.880Z,55.99
2016-05-05T02:18:12.868Z,55.8
2016-05-05T02:19:12.715Z,55.99
2016-05-05T02:20:12.858Z,55.42
2016-05-05T02:21:12.705Z,55.8
2016-05-05T02:22:12.850Z,55.61
2016-05-05T02:23:12.854Z,55.42
2016-05-05T02:24:12.902Z,55.51
2016-05-05T02:25:12.843Z,55.42
2016-05-05T02:26:12.845Z,55.61
2016-05-05T02:27:12.832Z,55.51
2016-05-05T02:28:12.835Z,55.51
2016-05-05T02:29:12.823Z,55.99
2016-05-05T02:30:12.826Z,55.8
2016-05-05T02:31:12.812Z,56.37
2016-05-05T02:32:12.659Z,56.37
2016-05-05T02:33:12.801Z,55.8
2016-05-05T02:34:12.804Z,55.99
2016-05-05T02:35:12.792Z,56.09
2016-05-05T02:36:13.950Z,56.27
2016-05-05T02:37:13.344Z,56.46
2016-05-05T02:38:13.534Z,56.46
2016-05-05T02:39:12.975Z,57.23
2016-05-05T02:40:12.618Z,56.75
2016-05-05T02:41:12.761Z,56.82
2016-05-05T02:42:13.108Z,57.13
2016-05-05T02:43:13.063Z,57.29
2016-05-05T02:44:12.754Z,57.42
2016-05-05T02:45:12.600Z,57.2
2016-05-05T02:46:13.118Z,57.39
2016-05-05T02:47:12.746Z,57.39
2016-05-05T02:48:12.749Z,57.39
2016-05-05T02:49:13.188Z,57.39
2016-05-05T02:50:12.723Z,57.01
2016-05-05T02:51:12.725Z,57.1
2016-05-05T02:52:13.760Z,57.2
2016-05-05T02:53:12.902Z,57.48
2016-05-05T02:54:14.108Z,57.58
2016-05-05T02:55:12.705Z,57.77
2016-05-05T02:56:12.708Z,57.58
2016-05-05T02:57:12.538Z,57.58
2016-05-05T02:58:12.698Z,57.87
2016-05-05T02:59:12.685Z,58.15
2016-05-05T03:00:12.704Z,58.34
2016-05-05T03:01:12.674Z,58.25
2016-05-05T03:02:13.224Z,58.25
2016-05-05T03:03:13.367Z,58.03
2016-05-05T03:04:12.651Z,58.4
2016-05-05T03:05:12.654Z,58.44
2016-05-05T03:06:12.500Z,58.59
2016-05-05T03:07:12.659Z,58.4
2016-05-05T03:08:12.646Z,58.69
2016-05-05T03:09:12.478Z,58.88
2016-05-05T03:10:12.464Z,58.88
2016-05-05T03:11:12.622Z,58.98
2016-05-05T03:12:12.625Z,58.5
2016-05-05T03:13:12.613Z,58.98
2016-05-05T03:14:12.616Z,59.74
2016-05-05T03:15:12.602Z,59.36
2016-05-05T03:16:12.605Z,59.45
2016-05-05T03:17:12.592Z,59.33
2016-05-05T03:18:12.580Z,59.42
2016-05-05T03:19:12.598Z,59.8
2016-05-05T03:20:12.585Z,60.09
2016-05-05T03:21:12.571Z,59.8
2016-05-05T03:22:12.558Z,60.47
2016-05-05T03:23:12.561Z,60.66
2016-05-05T03:24:12.955Z,60.47
2016-05-05T03:25:12.552Z,60.57
2016-05-05T03:26:12.538Z,60.75
2016-05-05T03:27:12.541Z,61.13
2016-05-05T03:28:12.528Z,60.85
2016-05-05T03:29:12.532Z,61.42
2016-05-05T03:30:12.518Z,61.32
2016-05-05T03:31:12.364Z,61.42
2016-05-05T03:32:12.507Z,61.61
2016-05-05T03:33:12.510Z,61.71
2016-05-05T03:34:12.498Z,61.61
2016-05-05T03:35:12.501Z,62.27
2016-05-05T03:36:12.487Z,62.18
2016-05-05T03:37:12.490Z,62.65
2016-05-05T03:38:12.477Z,62.37
2016-05-05T03:39:12.479Z,62.46
2016-05-05T03:40:12.467Z,62.43
2016-05-05T03:41:12.313Z,62.72
2016-05-05T03:42:12.456Z,63.04
2016-05-05T03:43:12.444Z,63.01
2016-05-05T03:44:12.290Z,63.39
2016-05-05T03:45:12.433Z,63.13
2016-05-05T03:46:12.436Z,63.1
2016-05-05T03:47:12.423Z,62.91
2016-05-05T03:48:12.426Z,63.01
2016-05-05T03:49:12.413Z,63.32
2016-05-05T03:50:12.430Z,63.29
2016-05-05T03:51:12.402Z,63.2
2016-05-05T03:52:12.389Z,63.23
2016-05-05T03:53:12.391Z,63.6
2016-05-05T03:54:12.910Z,63.7
2016-05-05T03:55:13.632Z,63.79
2016-05-05T03:56:12.479Z,63.32
2016-05-05T03:57:13.278Z,64.08
2016-05-05T03:58:12.359Z,63.79
2016-05-05T03:59:12.377Z,63.7
2016-05-05T04:00:12.551Z,63.79
2016-05-05T04:01:12.351Z,63.89
2016-05-05T04:02:12.385Z,63.79
2016-05-05T04:03:12.340Z,64.18
2016-05-05T04:04:12.328Z,64.18
2016-05-05T04:05:12.862Z,64.18
2016-05-05T04:06:12.615Z,64.08
2016-05-05T04:07:12.305Z,63.99
2016-05-05T04:08:12.604Z,64.21
2016-05-05T04:09:12.654Z,63.45
2016-05-05T04:10:13.000Z,63.45
2016-05-05T04:11:12.315Z,62.97
2016-05-05T04:12:13.506Z,62.91
2016-05-05T04:13:12.290Z,62.81
2016-05-05T04:14:12.277Z,62.53
2016-05-05T04:15:12.264Z,61.99
2016-05-05T04:16:12.267Z,61.32
2016-05-05T04:17:12.270Z,61.13
2016-05-05T04:18:12.256Z,60.69
2016-05-05T04:19:12.259Z,60.02
2016-05-05T04:21:12.092Z,58.72
2016-05-05T04:22:12.252Z,58.81
2016-05-05T04:23:12.566Z,58.17
2016-05-05T04:24:12.241Z,57.6
2016-05-05T04:25:12.807Z,56.84
2016-05-05T04:26:12.122Z,56.87
2016-05-05T04:27:12.219Z,56.29
2016-05-05T04:28:12.221Z,55.91
2016-05-05T04:29:12.239Z,55.18
2016-05-05T04:30:12.241Z,55.27
2016-05-05T04:31:12.229Z,54.25
2016-05-05T04:32:12.232Z,52.91
2016-05-05T04:33:12.234Z,52.62
2016-05-05T04:34:12.221Z,51.79
2016-05-05T04:35:12.223Z,51.98
2016-05-05T04:36:12.227Z,51.6
2016-05-05T04:37:12.214Z,50.95
2016-05-05T04:38:12.217Z,50.12
2016-05-05T04:39:12.220Z,49.74
2016-05-05T04:40:12.206Z,49.16
2016-05-05T04:41:12.209Z,49.09
2016-05-05T04:42:12.212Z,48.13
2016-05-05T04:43:12.214Z,47.85
2016-05-05T04:44:12.233Z,47.11
2016-05-05T04:45:12.220Z,46.65
2016-05-05T04:46:12.223Z,46.55
2016-05-05T04:47:12.209Z,45.43
2016-05-05T04:48:12.055Z,44.85
2016-05-05T04:49:12.231Z,44.37
2016-05-05T04:50:12.233Z,44.09
2016-05-05T04:51:12.220Z,43.6
2016-05-05T04:52:12.066Z,43.44
2016-05-05T04:53:12.226Z,42.38
2016-05-05T04:54:12.306Z,41.9
2016-05-05T04:55:12.230Z,40.96
2016-05-05T04:56:12.234Z,40.87
2016-05-05T04:57:12.236Z,40.48
2016-05-05T04:58:12.254Z,39.04
2016-05-05T04:59:12.258Z,39.16
2016-05-05T05:00:12.244Z,38.78
2016-05-05T05:01:12.247Z,38.49
2016-05-05T05:02:12.250Z,38.02
2016-05-05T05:03:12.252Z,37.74
2016-05-05T05:04:12.114Z,37.74
2016-05-05T05:05:12.273Z,37.37
2016-05-05T05:06:12.277Z,37.2
2016-05-05T05:07:12.279Z,37.12
2016-05-05T05:08:12.126Z,36.35
2016-05-05T05:09:12.425Z,35.77
2016-05-05T05:10:12.303Z,34.16
2016-05-05T05:11:12.289Z,34.43
2016-05-05T05:12:12.309Z,34.33
2016-05-05T05:13:12.311Z,34.25
2016-05-05T05:14:12.767Z,33.87
2016-05-05T05:15:13.129Z,33.12
2016-05-05T05:16:12.881Z,32.44
2016-05-05T05:17:26.508Z,32.34
2016-05-05T05:18:12.339Z,32.44
2016-05-05T05:19:12.545Z,31.56
2016-05-05T05:20:12.501Z,32.04
2016-05-05T05:21:12.364Z,31.56
2016-05-05T05:22:12.366Z,31.19
2016-05-05T05:23:13.431Z,31.01
2016-05-05T05:24:13.419Z,29.76
2016-05-05T05:25:12.405Z,29.38
2016-05-05T05:27:12.410Z,29.11
2016-05-05T05:28:26.601Z,28.63
2016-05-05T05:29:12.432Z,28.53
2016-05-05T05:30:14.044Z,28.55
2016-05-05T05:31:12.437Z,27.59
2016-05-05T05:32:12.627Z,26.54
2016-05-05T05:33:12.302Z,26.53
2016-05-05T05:34:12.476Z,26.15
2016-05-05T05:35:12.479Z,25.57
2016-05-05T05:36:12.482Z,26.06
2016-05-05T05:37:12.593Z,25.66
2016-05-05T05:38:12.362Z,25.75
2016-05-05T05:39:13.443Z,24.88
2016-05-05T05:40:13.305Z,24.68
2016-05-05T05:41:12.526Z,24.49
2016-05-05T05:42:13.326Z,25.24
2016-05-05T05:43:13.422Z,25.24
2016-05-05T05:44:12.565Z,25.05
2016-05-05T05:45:12.568Z,24.67
2016-05-05T05:46:12.587Z,24.76
2016-05-05T05:47:12.605Z,24.09
2016-05-05T05:48:12.608Z,23.99
2016-05-05T05:49:12.611Z,24.38
2016-05-05T05:50:12.472Z,24.19
2016-05-05T05:51:12.631Z,24.09
2016-05-05T05:52:12.650Z,24.18
2016-05-05T05:53:12.496Z,24.18
2016-05-05T05:54:12.514Z,24.08
2016-05-05T05:55:12.674Z,24.55
2016-05-05T05:56:12.691Z,25.12
2016-05-05T05:57:12.538Z,24.74
2016-05-05T05:58:12.728Z,25.04
2016-05-05T05:59:12.716Z,24.56
2016-05-05T06:00:12.733Z,24.45
2016-05-05T06:01:12.736Z,24.34
2016-05-05T06:02:12.754Z,24.71
2016-05-05T06:03:12.757Z,24.71
2016-05-05T06:04:12.776Z,24.9
2016-05-05T06:05:12.779Z,25.76
2016-05-05T06:06:12.797Z,26.05
2016-05-05T06:07:12.799Z,25.78
2016-05-05T06:08:12.817Z,25.59
2016-05-05T06:09:13.851Z,24.46
2016-05-05T06:10:12.699Z,24.19
2016-05-05T06:11:12.842Z,23.9
2016-05-05T06:12:12.859Z,24.09
2016-05-05T06:13:12.893Z,23.99
2016-05-05T06:14:12.881Z,22.66
2016-05-05T06:15:12.914Z,21.98
2016-05-05T06:16:12.901Z,22.08
2016-05-05T06:17:12.904Z,22.17
2016-05-05T06:18:12.938Z,21.4
2016-05-05T06:19:12.941Z,21.59
2016-05-05T06:20:12.944Z,20.92
2016-05-05T06:21:12.962Z,20.73
2016-05-05T06:22:12.980Z,21.4
2016-05-05T06:23:12.915Z,21.79
2016-05-05T06:24:13.027Z,22.17
2016-05-05T06:25:12.998Z,21.8
2016-05-05T06:26:13.017Z,20.94
2016-05-05T06:27:13.019Z,21.04
2016-05-05T06:28:13.037Z,20.26
2016-05-05T06:29:13.056Z,20.76
2016-05-05T06:30:13.059Z,20.38
2016-05-05T06:31:13.093Z,20.38
2016-05-05T06:32:13.080Z,20.1
2016-05-05T06:33:13.457Z,19.34
2016-05-05T06:34:13.257Z,18.28
2016-05-05T06:35:13.165Z,17.7
2016-05-05T06:36:13.137Z,18.37
2016-05-05T06:37:13.156Z,18.96
2016-05-05T06:38:13.158Z,18.59
2016-05-05T06:39:13.223Z,17.91
2016-05-05T06:40:13.289Z,17.43
2016-05-05T06:41:13.197Z,17.43
2016-05-05T06:42:14.123Z,17.14
2016-05-05T06:43:13.234Z,16.66
2016-05-05T06:44:13.893Z,16.56
2016-05-05T06:45:13.645Z,16.56
2016-05-05T06:46:13.273Z,16.08
2016-05-05T06:47:13.292Z,15.79
2016-05-05T06:48:14.716Z,15.89
2016-05-05T06:49:13.313Z,15.61
2016-05-05T06:50:13.363Z,15.61
2016-05-05T06:51:13.349Z,15.71
2016-05-05T06:52:13.368Z,14.45
2016-05-05T06:53:13.371Z,14.55
2016-05-05T06:54:13.389Z,14.75
2016-05-05T06:55:13.407Z,14.94
2016-05-05T06:56:13.425Z,15.05
2016-05-05T06:57:13.428Z,15.14
2016-05-05T06:58:13.446Z,14.86
2016-05-05T06:59:14.246Z,14.76
2016-05-05T07:00:13.324Z,14.37
2016-05-05T07:01:13.830Z,13.98
2016-05-05T07:02:13.518Z,13.4
2016-05-05T07:03:13.535Z,12.71
2016-05-05T07:04:13.554Z,12.91
2016-05-05T07:05:13.557Z,12.23
2016-05-05T07:06:13.575Z,12.12
2016-05-05T07:07:13.593Z,11.93
2016-05-05T07:08:13.612Z,12.21
2016-05-05T07:09:13.629Z,12.51
2016-05-05T07:10:13.648Z,12.42
2016-05-05T07:11:13.667Z,12.62
2016-05-05T07:12:13.669Z,12.82
2016-05-05T07:13:13.687Z,12.15
2016-05-05T07:14:13.706Z,12.05
2016-05-05T07:15:13.724Z,12.05
2016-05-05T07:16:13.742Z,12.05
2016-05-05T07:17:13.760Z,11.77
2016-05-05T07:18:13.779Z,11.87
2016-05-05T07:19:13.781Z,11.77
2016-05-05T07:20:13.800Z,11.78
2016-05-05T07:21:13.818Z,11
2016-05-05T07:22:13.836Z,11
2016-05-05T07:23:13.855Z,10.13
2016-05-05T07:24:13.716Z,9.25
2016-05-05T07:25:13.891Z,8.85
2016-05-05T07:26:13.910Z,9.33
2016-05-05T07:27:13.772Z,9.81
2016-05-05T07:28:13.946Z,10.11
2016-05-05T07:29:13.965Z,9.92
2016-05-05T07:30:13.983Z,10.02
2016-05-05T07:31:14.002Z,10.02
2016-05-05T07:32:14.019Z,10.22
2016-05-05T07:33:14.038Z,10.13
2016-05-05T07:34:14.057Z,9.94
2016-05-05T07:35:14.074Z,9.16
2016-05-05T07:36:13.937Z,9.55
2016-05-05T07:37:14.112Z,8.77
2016-05-05T07:38:14.129Z,8.58
2016-05-05T07:39:14.148Z,9.16
2016-05-05T07:40:14.165Z,8.67
2016-05-05T07:41:14.185Z,8.58
2016-05-05T07:42:14.203Z,8.28
2016-05-05T07:43:14.220Z,8.76
2016-05-05T07:44:14.084Z,9.45
2016-05-05T07:45:14.258Z,9.06
2016-05-05T07:46:14.292Z,9.55
2016-05-05T07:47:14.294Z,9.45
2016-05-05T07:48:14.312Z,9.64
2016-05-05T07:49:14.331Z,8.58
2016-05-05T07:50:14.349Z,8.37
2016-05-05T07:51:28.558Z,8.76
2016-05-05T07:52:14.386Z,9.54
2016-05-05T07:53:14.858Z,9.45
2016-05-05T07:54:15.000Z,9.06
2016-05-05T07:55:14.753Z,9.36
2016-05-05T07:56:14.458Z,9.55
2016-05-05T07:57:14.493Z,9.94
2016-05-05T07:58:14.511Z,8.77
2016-05-05T07:59:14.530Z,8.67
2016-05-05T08:00:14.549Z,8.48
2016-05-05T08:01:14.566Z,9.06
2016-05-05T08:02:15.038Z,9.26
2016-05-05T08:03:14.899Z,9.16
2016-05-05T08:04:14.621Z,8.58
2016-05-05T08:05:14.999Z,8.38
2016-05-05T08:06:14.502Z,8.28
2016-05-05T08:08:14.710Z,8.87
2016-05-05T08:09:14.728Z,8.58
2016-05-05T08:10:15.404Z,8.87
2016-05-05T08:11:14.765Z,8.58
2016-05-05T08:12:15.487Z,8.58
2016-05-05T08:13:14.801Z,8.59
2016-05-05T08:14:14.836Z,8.1
2016-05-05T08:15:14.854Z,7.71
2016-05-05T08:16:16.123Z,7.61
2016-05-05T08:17:14.890Z,7.71
2016-05-05T08:18:15.955Z,7.6
2016-05-05T08:19:16.006Z,7.51
2016-05-05T08:20:15.664Z,7.6
2016-05-05T08:21:14.964Z,7.89
2016-05-05T08:22:15.154Z,8.19
2016-05-05T08:23:15.017Z,8.09
2016-05-05T08:24:15.456Z,8.29
2016-05-05T08:25:15.053Z,8.09
2016-05-05T08:26:15.071Z,8.28
2016-05-05T08:27:15.089Z,7.98
2016-05-05T08:28:15.108Z,8.37
2016-05-05T08:29:15.127Z,7.78
2016-05-05T08:30:15.160Z,7.78
2016-05-05T08:31:15.163Z,8.45
2016-05-05T08:32:15.181Z,9.02
2016-05-05T08:33:15.199Z,9.41
2016-05-05T08:34:15.218Z,9.89
2016-05-05T08:35:15.236Z,10.47
2016-05-05T08:36:15.254Z,10.56
2016-05-05T08:37:15.273Z,10.85
2016-05-05T08:38:15.291Z,11.33
2016-05-05T08:39:15.309Z,11.22
2016-05-05T08:40:15.312Z,11.42
2016-05-05T08:41:15.329Z,11.71
2016-05-05T08:42:15.348Z,11.89
2016-05-05T08:43:15.367Z,12.37
2016-05-05T08:44:15.370Z,13.04
2016-05-05T08:45:15.231Z,13.13
2016-05-05T08:46:15.407Z,13.71
2016-05-05T08:47:15.440Z,13.8
2016-05-05T08:48:15.427Z,14.56
2016-05-05T08:49:15.445Z,14.84
2016-05-05T08:50:15.448Z,14.84
2016-05-05T08:51:15.467Z,15.52
2016-05-05T08:52:15.313Z,15.99
2016-05-05T08:53:15.487Z,16.18
2016-05-05T08:54:15.334Z,16.56
2016-05-05T08:55:15.508Z,17.03
2016-05-05T08:56:15.370Z,16.75
2016-05-05T08:57:15.545Z,16.65
2016-05-05T08:58:15.533Z,17.23
2016-05-05T08:59:15.535Z,17.22
2016-05-05T09:00:15.552Z,17.9
2016-05-05T09:01:15.556Z,17.98
2016-05-05T09:02:15.575Z,18.18
2016-05-05T09:03:15.560Z,18.56
2016-05-05T09:04:15.580Z,18.66
2016-05-05T09:05:15.582Z,18.95
2016-05-05T09:06:15.585Z,19.23
2016-05-05T09:07:15.603Z,19.13
2016-05-05T09:08:15.606Z,19.23
2016-05-05T09:09:15.624Z,19.43
2016-05-05T09:10:29.801Z,19.9
2016-05-05T09:11:16.223Z,20.38
2016-05-05T09:12:15.632Z,20.57
2016-05-05T09:13:15.635Z,20.67
2016-05-05T09:14:15.638Z,20.76
2016-05-05T09:16:15.643Z,20.75
2016-05-05T09:17:15.646Z,21.42
2016-05-05T09:18:15.649Z,21.23
2016-05-05T09:19:15.650Z,21.51
2016-05-05T09:21:15.766Z,21.89
2016-05-05T09:22:15.815Z,21.59
2016-05-05T09:23:15.818Z,21.98
2016-05-05T09:24:15.555Z,21.88
2016-05-05T09:25:15.683Z,22.17
2016-05-05T09:26:16.075Z,22.36
2016-05-05T09:27:15.533Z,22.36
2016-05-05T09:28:16.894Z,22.38
2016-05-05T09:29:15.538Z,22.66
2016-05-05T09:30:15.698Z,22.28
2016-05-05T09:31:15.534Z,23.24
2016-05-05T09:32:15.695Z,23.14
2016-05-05T09:33:15.744Z,23.14
2016-05-05T09:34:15.716Z,23.14
2016-05-05T09:35:15.733Z,23.24
2016-05-05T09:36:16.658Z,23.24
2016-05-05T09:37:16.833Z,23.15
2016-05-05T09:38:16.257Z,23.24
2016-05-05T09:39:15.728Z,23.33
2016-05-05T09:40:15.716Z,23.52
2016-05-05T09:41:15.718Z,23.82
2016-05-05T09:42:15.726Z,23.62
2016-05-05T09:43:15.827Z,23.91
2016-05-05T09:44:15.737Z,24.01
2016-05-05T09:45:15.723Z,24.01
2016-05-05T09:46:15.725Z,24.1
2016-05-05T09:47:16.042Z,24.39
2016-05-05T09:48:15.747Z,24.39
2016-05-05T09:49:15.578Z,24.1
2016-05-05T09:50:15.737Z,24.2
2016-05-05T09:51:15.739Z,24.57
2016-05-05T09:52:15.742Z,24.57
2016-05-05T09:53:15.745Z,24.38
2016-05-05T09:54:15.903Z,24.86
2016-05-05T09:55:15.750Z,24.66
2016-05-05T09:56:15.753Z,24.57
2016-05-05T09:57:15.771Z,24.76
2016-05-05T09:58:15.758Z,24.48
2016-05-05T09:59:15.761Z,24.38
2016-05-05T10:00:15.763Z,25.15
2016-05-05T10:01:15.610Z,24.38
2016-05-05T10:02:15.769Z,24.57
2016-05-05T10:03:15.771Z,24.66
2016-05-05T10:04:15.774Z,24.49
2016-05-05T10:05:15.620Z,24.49
2016-05-05T10:06:15.779Z,24.39
2016-05-05T10:07:15.782Z,24.96
2016-05-05T10:08:15.785Z,24.96
2016-05-05T10:09:15.787Z,24.77
2016-05-05T10:10:15.837Z,24.96
2016-05-05T10:11:15.793Z,24.77
2016-05-05T10:12:15.639Z,24.58
2016-05-05T10:13:15.799Z,24.39
2016-05-05T10:14:15.801Z,24.58
2016-05-05T10:15:15.803Z,24.49
2016-05-05T10:16:15.807Z,24.68
2016-05-05T10:17:15.809Z,24.66
2016-05-05T10:18:15.811Z,24.66
2016-05-05T10:19:15.815Z,25.15
2016-05-05T10:20:15.661Z,24.95
2016-05-05T10:21:15.819Z,24.76
2016-05-05T10:22:15.651Z,25.05
2016-05-05T10:23:15.825Z,25.06
2016-05-05T10:24:15.828Z,25.06
2016-05-05T10:25:15.814Z,24.96
2016-05-05T10:26:15.817Z,25.06
2016-05-05T10:27:15.836Z,25.35
2016-05-05T10:28:16.511Z,25.73
2016-05-05T10:29:16.325Z,25.54
2016-05-05T10:30:15.828Z,25.45
2016-05-05T10:31:16.034Z,25.35
2016-05-05T10:32:15.927Z,25.64
2016-05-05T10:33:15.837Z,25.73
2016-05-05T10:34:16.043Z,25.73
2016-05-05T10:35:16.139Z,25.45
2016-05-05T10:36:15.844Z,25.83
2016-05-05T10:37:15.847Z,25.83
2016-05-05T10:38:30.024Z,25.93
2016-05-05T10:39:16.602Z,26.42
2016-05-05T10:40:15.855Z,26.03
2016-05-05T10:41:15.857Z,25.46
2016-05-05T10:42:15.860Z,25.84
2016-05-05T10:43:15.707Z,25.84
2016-05-05T10:44:15.960Z,25.84
2016-05-05T10:45:15.868Z,25.46
2016-05-05T10:46:17.090Z,25.84
2016-05-05T10:47:15.703Z,25.94
2016-05-05T10:48:15.877Z,25.94
2016-05-05T10:49:16.504Z,25.27
2016-05-05T10:50:15.882Z,25.84
2016-05-05T10:51:15.728Z,25.65
2016-05-05T10:52:15.887Z,25.46
2016-05-05T10:53:15.890Z,25.46
2016-05-05T10:54:15.892Z,25.46
2016-05-05T10:55:15.895Z,25.36
2016-05-05T10:56:15.898Z,25.56
2016-05-05T10:57:16.386Z,25.46
2016-05-05T10:58:16.794Z,25.56
2016-05-05T10:59:15.938Z,25.56
2016-05-05T11:00:16.406Z,25.74
2016-05-05T11:01:16.015Z,25.74
2016-05-05T11:02:15.906Z,25.56
2016-05-05T11:03:16.108Z,25.65
2016-05-05T11:04:16.134Z,25.74
2016-05-05T11:05:16.153Z,25.56
2016-05-05T11:06:16.171Z,25.56
2016-05-05T11:07:16.190Z,25.84
2016-05-05T11:08:16.208Z,25.84
2016-05-05T11:09:16.220Z,25.46
2016-05-05T11:10:16.228Z,26.32
2016-05-05T11:11:16.236Z,26.34
2016-05-05T11:12:16.244Z,26.15
2016-05-05T11:13:16.252Z,26.34
2016-05-05T11:14:16.257Z,26.24
2016-05-05T11:15:16.106Z,26.53
2016-05-05T11:16:16.266Z,26.34
2016-05-05T11:17:16.271Z,26.53
2016-05-05T11:18:16.275Z,26.05
2016-05-05T11:19:16.280Z,25.95
2016-05-05T11:20:16.283Z,26.05
2016-05-05T11:21:16.130Z,25.95
2016-05-05T11:22:16.290Z,25.67
2016-05-05T11:23:16.306Z,26.05
2016-05-05T11:24:16.293Z,26.05
2016-05-05T11:25:16.296Z,25.76
2016-05-05T11:26:16.299Z,25.57
2016-05-05T11:27:16.302Z,25.76
2016-05-05T11:28:16.321Z,25.85
2016-05-05T11:29:16.152Z,25.57
2016-05-05T11:30:16.311Z,25.85
2016-05-05T11:31:16.157Z,25.85
2016-05-05T11:32:16.301Z,26.34
2016-05-05T11:33:16.320Z,26.34
2016-05-05T11:34:16.322Z,26.34
2016-05-05T11:35:16.324Z,26.34
2016-05-05T11:36:16.327Z,26.15
2016-05-05T11:37:16.330Z,25.57
2016-05-05T11:38:16.332Z,25.76
2016-05-05T11:39:16.179Z,25.76
2016-05-05T11:40:16.464Z,25.38
2016-05-05T11:41:16.341Z,25.18
2016-05-05T11:42:16.188Z,24.9
2016-05-05T11:43:16.346Z,24.9
2016-05-05T11:44:16.193Z,25.38
2016-05-05T11:45:16.335Z,25.38
2016-05-05T11:46:16.355Z,25.18
2016-05-05T11:47:16.357Z,24.8
2016-05-05T11:48:17.501Z,25.09
2016-05-05T11:49:16.596Z,24.8
2016-05-05T11:50:16.365Z,25.09
2016-05-05T11:51:16.852Z,24.8
2016-05-05T11:52:16.354Z,24.99
2016-05-05T11:53:16.357Z,24.8
2016-05-05T11:54:16.376Z,24.99
2016-05-05T11:55:16.379Z,25.07
2016-05-05T11:56:16.413Z,24.88
2016-05-05T11:57:17.571Z,25.46
2016-05-05T11:58:17.028Z,25.74
2016-05-05T11:59:16.389Z,25.65
2016-05-05T12:00:16.392Z,25.56
2016-05-05T12:01:16.222Z,25.56
2016-05-05T12:02:16.788Z,25.65
2016-05-05T12:03:16.400Z,25.65
2016-05-05T12:04:18.200Z,26.04
2016-05-05T12:05:16.406Z,25.84
2016-05-05T12:06:16.392Z,25.94
2016-05-05T12:07:16.395Z,26.32
2016-05-05T12:08:16.897Z,25.85
2016-05-05T12:09:16.244Z,25.85
2016-05-05T12:10:16.294Z,25.84
2016-05-05T12:11:16.250Z,25.84
2016-05-05T12:13:16.411Z,25.74
2016-05-05T12:14:16.413Z,25.65
2016-05-05T12:15:16.854Z,25.67
2016-05-05T12:16:17.559Z,25.95
2016-05-05T12:17:16.422Z,26.24
2016-05-05T12:18:16.441Z,26.34
2016-05-05T12:19:16.443Z,26.24
2016-05-05T12:20:16.274Z,25.85
2016-05-05T12:21:16.432Z,25.57
2016-05-05T12:22:16.435Z,26.24
2016-05-05T12:23:16.281Z,26.15
2016-05-05T12:24:16.440Z,25.85
2016-05-05T12:25:16.444Z,25.87
2016-05-05T12:26:16.431Z,25.29
2016-05-05T12:27:16.465Z,25.87
2016-05-05T12:28:16.295Z,25.96
2016-05-05T12:29:16.298Z,26.06
2016-05-05T12:30:16.441Z,26.16
2016-05-05T12:31:16.460Z,26.35
2016-05-05T12:32:16.462Z,26.06
2016-05-05T12:33:16.449Z,26.54
2016-05-05T12:34:16.452Z,26.83
2016-05-05T12:35:16.470Z,26.35
2016-05-05T12:36:16.472Z,26.25
2016-05-05T12:37:16.460Z,26.35
2016-05-05T12:38:16.478Z,25.96
2016-05-05T12:39:16.481Z,26.16
2016-05-05T12:40:16.311Z,25.96
2016-05-05T12:41:16.471Z,26.07
2016-05-05T12:42:16.474Z,26.46
2016-05-05T12:43:16.491Z,25.78
2016-05-05T12:44:16.479Z,25.87
2016-05-05T12:45:16.482Z,25.48
2016-05-05T12:46:16.485Z,25.96
2016-05-05T12:47:16.487Z,26.64
2016-05-05T12:48:16.490Z,25.96
2016-05-05T12:49:16.493Z,26.27
2016-05-05T12:50:16.495Z,26.06
2016-05-05T12:51:16.513Z,25.49
2016-05-05T12:52:16.515Z,25.59
2016-05-05T12:53:16.518Z,25.79
2016-05-05T12:54:16.521Z,25.79
2016-05-05T12:55:16.837Z,25.79
2016-05-05T12:56:16.527Z,25.69
2016-05-05T12:57:16.514Z,25.32
2016-05-05T12:58:16.359Z,24.93
2016-05-05T12:59:16.534Z,25.42
2016-05-05T13:00:16.538Z,25.51
2016-05-05T13:01:16.556Z,25.32
2016-05-05T13:02:16.543Z,25.03
2016-05-05T13:03:16.545Z,25.04
2016-05-05T13:04:16.548Z,25.33